Time;durP1;ratioP1;P1;durP2;ratioP2;P2;SDS_P1;SDS_P2;PMS_P1;PMS_P2;Temp;Humidity;BMP_temperature;BMP_pressure;BME280_temperature;BME280_humidity;BME280_pressure;Samples;Min_cycle;Max_cycle;Signal;HPM_P1;HPM_P2
2021/06/28 00:00:15;;;;;;;7.13;6.43;;;21.60;74.80;;;;;;5054973;28;20992;-43
2021/06/28 00:02:42;;;;;;;9.60;7.20;;;21.60;74.90;;;;;;5057252;28;20462;-43
2021/06/28 00:05:12;;;;;;;7.43;5.97;;;21.60;74.90;;;;;;5063050;28;20458;-43
2021/06/28 00:07:41;;;;;;;9.03;7.60;;;21.60;75.00;;;;;;5058170;28;20466;-43
2021/06/28 00:10:09;;;;;;;7.87;7.17;;;21.60;75.10;;;;;;5057568;28;20718;-43
2021/06/28 00:12:36;;;;;;;6.53;5.80;;;21.50;75.20;;;;;;5057633;28;20435;-43
2021/06/28 00:15:08;;;;;;;8.30;7.50;;;21.50;75.30;;;;;;5059223;28;21156;-44
2021/06/28 00:17:34;;;;;;;9.30;7.40;;;21.50;75.50;;;;;;5084857;28;20457;-43
2021/06/28 00:20:02;;;;;;;6.67;6.03;;;21.40;75.50;;;;;;5056381;28;20462;-43
2021/06/28 00:22:28;;;;;;;6.43;5.83;;;21.40;75.70;;;;;;5053386;28;20460;-43
2021/06/28 00:24:55;;;;;;;6.60;6.00;;;21.40;75.70;;;;;;5055119;28;20482;-43
2021/06/28 00:27:23;;;;;;;7.20;6.40;;;21.40;75.70;;;;;;5057235;28;20470;-42
2021/06/28 00:29:51;;;;;;;8.73;7.03;;;21.40;75.80;;;;;;5082147;28;20454;-42
2021/06/28 00:32:19;;;;;;;7.43;6.63;;;21.30;75.90;;;;;;5087077;28;20460;-42
2021/06/28 00:34:46;;;;;;;7.20;6.50;;;21.30;76.00;;;;;;5084740;28;20463;-42
2021/06/28 00:37:13;;;;;;;8.27;6.10;;;21.20;76.10;;;;;;5057920;28;20954;-43
2021/06/28 00:39:39;;;;;;;7.80;6.23;;;21.20;76.20;;;;;;5058821;28;20469;-42
2021/06/28 00:42:06;;;;;;;7.93;6.40;;;21.20;76.20;;;;;;5056653;28;20830;-42
2021/06/28 00:44:33;;;;;;;6.33;5.83;;;21.20;76.30;;;;;;5058897;28;20486;-43
2021/06/28 00:47:02;;;;;;;7.63;6.73;;;21.10;76.30;;;;;;5058682;28;20472;-43
2021/06/28 00:49:29;;;;;;;8.47;7.00;;;21.10;76.40;;;;;;5059463;28;20449;-42
2021/06/28 00:51:57;;;;;;;7.43;6.50;;;21.00;76.40;;;;;;5059430;28;20469;-42
2021/06/28 00:54:25;;;;;;;9.67;7.30;;;21.00;76.40;;;;;;5059025;28;20461;-42
2021/06/28 00:56:52;;;;;;;7.37;6.63;;;21.00;76.50;;;;;;5062283;28;20842;-43
2021/06/28 00:59:20;;;;;;;8.20;7.10;;;21.00;76.50;;;;;;5059261;28;20457;-42
2021/06/28 01:01:47;;;;;;;7.90;7.10;;;20.90;76.40;;;;;;5061947;28;20454;-43
2021/06/28 01:04:14;;;;;;;8.00;6.90;;;20.90;76.40;;;;;;5057704;28;20994;-43
2021/06/28 01:06:41;;;;;;;9.00;7.03;;;20.90;76.40;;;;;;5062772;28;20819;-42
2021/06/28 01:09:07;;;;;;;7.40;6.70;;;20.90;76.40;;;;;;5060766;28;20461;-43
2021/06/28 01:11:34;;;;;;;8.67;7.50;;;20.80;76.40;;;;;;5061447;28;20826;-43
2021/06/28 01:14:04;;;;;;;6.80;6.20;;;20.80;76.50;;;;;;5055126;28;20963;-43
2021/06/28 01:16:31;;;;;;;11.13;7.70;;;20.80;76.50;;;;;;5062974;28;20843;-43
2021/06/28 01:18:59;;;;;;;7.90;7.10;;;20.70;76.50;;;;;;5060517;28;20477;-42
2021/06/28 01:21:28;;;;;;;6.50;5.90;;;20.70;76.60;;;;;;5059520;28;20464;-43
2021/06/28 01:23:56;;;;;;;9.83;7.00;;;20.70;76.60;;;;;;5061163;28;20496;-43
2021/06/28 01:26:23;;;;;;;8.80;7.63;;;20.70;76.60;;;;;;5062460;28;20458;-43
2021/06/28 01:28:50;;;;;;;9.70;6.73;;;20.60;76.70;;;;;;5090071;27;20931;-42
2021/06/28 01:31:16;;;;;;;9.30;7.30;;;20.60;76.80;;;;;;5059671;28;20857;-43
2021/06/28 01:33:43;;;;;;;8.47;6.50;;;20.60;76.90;;;;;;5060205;28;20930;-43
2021/06/28 01:36:10;;;;;;;7.00;6.30;;;20.70;77.10;;;;;;5060057;28;20472;-43
2021/06/28 01:38:37;;;;;;;7.67;6.87;;;20.60;77.10;;;;;;5061405;28;20497;-43
2021/06/28 01:41:04;;;;;;;9.03;7.03;;;20.60;77.10;;;;;;5059779;28;20488;-42
2021/06/28 01:43:32;;;;;;;8.30;7.20;;;20.60;77.10;;;;;;5059323;28;20794;-43
2021/06/28 01:45:59;;;;;;;9.07;6.93;;;20.50;77.00;;;;;;5061411;28;20652;-43
2021/06/28 01:48:26;;;;;;;8.70;7.90;;;20.50;77.10;;;;;;5062426;28;20462;-42
2021/06/28 01:50:53;;;;;;;7.90;7.13;;;20.50;76.90;;;;;;5057339;28;20454;-43
2021/06/28 01:53:20;;;;;;;8.33;7.27;;;20.50;76.90;;;;;;5062559;28;20457;-42
2021/06/28 01:55:47;;;;;;;10.03;7.27;;;20.50;77.10;;;;;;5059117;28;20466;-43
2021/06/28 01:58:15;;;;;;;8.63;6.97;;;20.50;77.20;;;;;;5058069;28;20450;-42
2021/06/28 02:00:52;;;;;;;8.83;6.93;;;20.50;77.40;;;;;;5056332;28;20454;-43
2021/06/28 02:03:22;;;;;;;7.90;7.07;;;20.50;77.40;;;;;;5055899;28;20469;-43
2021/06/28 02:05:53;;;;;;;7.70;7.00;;;20.50;77.40;;;;;;5059583;28;20454;-43
2021/06/28 02:08:23;;;;;;;9.00;7.83;;;20.50;77.40;;;;;;5058381;28;20871;-42
2021/06/28 02:10:52;;;;;;;7.90;7.10;;;20.50;77.20;;;;;;5058145;28;20466;-41
2021/06/28 02:13:21;;;;;;;8.20;7.27;;;20.40;77.40;;;;;;5087621;28;20924;-42
2021/06/28 02:15:49;;;;;;;7.57;6.90;;;20.50;77.60;;;;;;5062635;28;20473;-42
2021/06/28 02:18:16;;;;;;;8.93;7.33;;;20.50;77.60;;;;;;5059240;28;20621;-42
2021/06/28 02:20:43;;;;;;;8.90;7.13;;;20.50;77.70;;;;;;5057893;28;20453;-42
2021/06/28 02:23:19;;;;;;;7.40;6.70;;;20.50;77.90;;;;;;5059782;28;20464;-42
2021/06/28 02:26:01;;;;;;;7.67;6.87;;;20.50;78.10;;;;;;5057639;28;20455;-42
2021/06/28 02:28:31;;;;;;;7.97;7.27;;;20.50;78.10;;;;;;5058518;28;20457;-42
2021/06/28 02:30:59;;;;;;;7.67;6.87;;;20.50;77.90;;;;;;5060482;28;20457;-42
2021/06/28 02:33:27;;;;;;;8.57;7.07;;;20.50;77.90;;;;;;5066685;28;20846;-42
2021/06/28 02:35:54;;;;;;;8.00;7.30;;;20.50;77.90;;;;;;5060982;28;20477;-42
2021/06/28 02:38:21;;;;;;;7.53;6.83;;;20.50;78.10;;;;;;5057639;28;20925;-42
2021/06/28 02:40:51;;;;;;;7.60;6.90;;;20.50;78.30;;;;;;5059072;28;20454;-42
2021/06/28 02:43:18;;;;;;;8.10;7.10;;;20.50;78.30;;;;;;5059263;28;20488;-45
2021/06/28 02:45:45;;;;;;;7.50;6.73;;;20.50;78.30;;;;;;5060532;28;20994;-45
2021/06/28 02:48:12;;;;;;;9.60;7.57;;;20.50;78.40;;;;;;5055332;28;20955;-45
2021/06/28 02:50:39;;;;;;;7.50;6.80;;;20.50;78.30;;;;;;5056638;28;20461;-45
2021/06/28 02:53:07;;;;;;;8.30;7.47;;;20.50;78.40;;;;;;5059159;28;20984;-45
2021/06/28 02:55:34;;;;;;;7.80;6.93;;;20.50;78.40;;;;;;5055682;28;20840;-45
2021/06/28 02:58:03;;;;;;;8.53;6.97;;;20.50;78.40;;;;;;5060636;28;20485;-44
2021/06/28 03:00:30;;;;;;;7.90;7.10;;;20.50;78.60;;;;;;5057826;28;20485;-45
2021/06/28 03:02:59;;;;;;;8.50;7.60;;;20.50;78.70;;;;;;5089776;28;20469;-44
2021/06/28 03:05:26;;;;;;;8.10;7.40;;;20.50;78.70;;;;;;5057582;28;20577;-45
2021/06/28 03:07:54;;;;;;;13.10;7.53;;;20.50;78.70;;;;;;5052935;28;20454;-44
2021/06/28 03:10:24;;;;;;;9.80;7.60;;;20.50;78.80;;;;;;5058349;28;20478;-45
2021/06/28 03:12:51;;;;;;;8.10;6.70;;;20.50;78.80;;;;;;5063067;28;20450;-45
2021/06/28 03:15:20;;;;;;;7.80;6.60;;;20.50;78.90;;;;;;5086766;28;20552;-44
2021/06/28 03:17:47;;;;;;;8.73;7.67;;;20.50;78.90;;;;;;5058675;28;20466;-45
2021/06/28 03:20:15;;;;;;;8.90;8.00;;;20.50;79.00;;;;;;5058496;28;20473;-45
2021/06/28 03:22:45;;;;;;;8.10;7.30;;;20.50;79.00;;;;;;5053307;28;20475;-44
2021/06/28 03:25:15;;;;;;;8.13;6.73;;;20.50;79.10;;;;;;5058130;28;21013;-45
2021/06/28 03:27:42;;;;;;;8.70;7.43;;;20.50;79.10;;;;;;5057175;28;20818;-45
2021/06/28 03:30:12;;;;;;;8.47;7.67;;;20.50;79.20;;;;;;5057808;28;20462;-45
2021/06/28 03:32:39;;;;;;;8.07;7.27;;;20.50;79.30;;;;;;5057783;28;20463;-45
2021/06/28 03:35:07;;;;;;;8.47;7.57;;;20.50;79.20;;;;;;5087952;28;20455;-45
2021/06/28 03:37:34;;;;;;;10.60;7.83;;;20.50;79.20;;;;;;5056041;28;20616;-45
2021/06/28 03:40:05;;;;;;;8.03;7.33;;;20.50;79.20;;;;;;5058259;28;20465;-45
2021/06/28 03:42:35;;;;;;;8.80;8.00;;;20.50;79.30;;;;;;5061215;28;20467;-45
2021/06/28 03:45:04;;;;;;;10.10;7.60;;;20.50;79.50;;;;;;5055848;28;20488;-45
2021/06/28 03:47:31;;;;;;;7.60;6.80;;;20.50;79.40;;;;;;5054587;28;20541;-45
2021/06/28 03:49:58;;;;;;;7.40;6.70;;;20.50;79.20;;;;;;5090268;27;20668;-44
2021/06/28 03:52:25;;;;;;;9.20;7.67;;;20.50;79.20;;;;;;5055934;28;20947;-45
2021/06/28 03:54:51;;;;;;;7.20;6.50;;;20.50;79.20;;;;;;5058294;28;20865;-45
2021/06/28 03:57:18;;;;;;;12.03;7.37;;;20.50;79.20;;;;;;5054037;28;20463;-45
2021/06/28 03:59:45;;;;;;;7.67;6.87;;;20.50;79.10;;;;;;5054451;28;21033;-44
2021/06/28 04:02:12;;;;;;;11.40;7.33;;;20.50;79.20;;;;;;5056585;28;21092;-45
2021/06/28 04:04:38;;;;;;;10.10;8.37;;;20.40;79.20;;;;;;5056108;28;20485;-45
2021/06/28 04:07:05;;;;;;;8.50;6.90;;;20.40;79.30;;;;;;5058010;28;20457;-45
2021/06/28 04:09:32;;;;;;;9.60;8.50;;;20.40;79.40;;;;;;5057912;28;20800;-45
2021/06/28 04:11:59;;;;;;;8.70;7.80;;;20.40;79.40;;;;;;5061237;28;20473;-45
2021/06/28 04:14:25;;;;;;;8.53;7.57;;;20.40;79.50;;;;;;5061243;28;20834;-46
2021/06/28 04:16:53;;;;;;;9.60;8.67;;;20.40;79.70;;;;;;5064384;28;20466;-45
2021/06/28 04:19:20;;;;;;;9.13;8.23;;;20.40;79.90;;;;;;5055315;28;20519;-45
2021/06/28 04:21:46;;;;;;;9.37;8.47;;;20.40;80.00;;;;;;5058549;28;20869;-45
2021/06/28 04:24:13;;;;;;;8.70;7.80;;;20.50;80.30;;;;;;5085779;28;20487;-45
2021/06/28 04:26:40;;;;;;;9.70;8.70;;;20.60;80.50;;;;;;5056038;28;20457;-45
2021/06/28 04:29:07;;;;;;;9.33;7.47;;;20.60;80.50;;;;;;5056927;28;20460;-45
2021/06/28 04:31:33;;;;;;;12.13;8.33;;;20.60;80.00;;;;;;5055125;28;20794;-45
2021/06/28 04:34:00;;;;;;;8.33;7.50;;;20.70;79.90;;;;;;5060375;28;20458;-45
2021/06/28 04:36:27;;;;;;;10.67;7.83;;;20.70;80.00;;;;;;5058485;28;20471;-45
2021/06/28 04:38:54;;;;;;;9.07;8.13;;;20.70;79.10;;;;;;5061398;28;20540;-45
2021/06/28 04:41:21;;;;;;;13.57;8.60;;;20.70;78.80;;;;;;5057796;28;21032;-44
2021/06/28 04:43:47;;;;;;;9.47;8.47;;;20.70;78.90;;;;;;5058042;28;20464;-44
2021/06/28 04:46:14;;;;;;;10.00;9.00;;;20.70;79.10;;;;;;5053677;28;20483;-44
2021/06/28 04:48:41;;;;;;;10.00;9.10;;;20.60;79.30;;;;;;5055498;28;20517;-44
2021/06/28 04:51:08;;;;;;;10.03;8.80;;;20.70;79.40;;;;;;5053639;28;20464;-45
2021/06/28 04:53:34;;;;;;;9.40;8.50;;;20.60;79.50;;;;;;5058740;28;20465;-44
2021/06/28 04:56:45;;;;;;;10.30;9.27;;;20.70;79.90;;;;;;5082507;28;20463;-45
2021/06/28 04:59:15;;;;;;;9.23;8.20;;;20.70;79.70;;;;;;5054301;28;20462;-46
2021/06/28 05:01:41;;;;;;;9.20;8.40;;;20.70;79.80;;;;;;5082579;28;20815;-44
2021/06/28 05:04:08;;;;;;;9.30;8.43;;;20.70;80.00;;;;;;5059666;28;20548;-45
2021/06/28 05:06:35;;;;;;;9.93;8.93;;;20.80;80.20;;;;;;5057483;28;20446;-45
2021/06/28 05:09:02;;;;;;;10.77;9.70;;;20.90;80.20;;;;;;5072741;28;20815;-45
2021/06/28 05:11:29;;;;;;;11.80;9.70;;;20.90;80.20;;;;;;5060095;28;20468;-44
2021/06/28 05:13:56;;;;;;;11.43;8.60;;;20.90;80.30;;;;;;5061762;28;21046;-45
2021/06/28 05:16:22;;;;;;;11.23;9.50;;;20.90;80.30;;;;;;5057365;28;20887;-44
2021/06/28 05:18:49;;;;;;;12.40;9.27;;;21.00;80.30;;;;;;5057044;28;20502;-45
2021/06/28 05:21:16;;;;;;;11.87;9.53;;;21.00;80.30;;;;;;5059242;28;20451;-45
2021/06/28 05:23:42;;;;;;;10.50;9.33;;;21.00;80.30;;;;;;5056069;28;20480;-45
2021/06/28 05:26:09;;;;;;;10.10;9.10;;;21.10;80.50;;;;;;5082955;28;21017;-45
2021/06/28 05:28:36;;;;;;;12.40;9.97;;;21.10;80.40;;;;;;5058650;28;20468;-46
2021/06/28 05:31:03;;;;;;;13.93;10.07;;;21.20;80.50;;;;;;5058901;28;20941;-45
2021/06/28 05:33:31;;;;;;;11.73;9.30;;;21.30;80.70;;;;;;5059570;28;20454;-45
2021/06/28 05:35:57;;;;;;;12.30;9.13;;;21.30;81.10;;;;;;5059925;28;20460;-45
2021/06/28 05:38:24;;;;;;;11.30;9.20;;;21.40;81.20;;;;;;5064380;28;20457;-46
2021/06/28 05:40:51;;;;;;;11.53;9.73;;;21.40;81.20;;;;;;5061368;28;20840;-45
2021/06/28 05:43:17;;;;;;;9.90;9.00;;;21.50;80.80;;;;;;5088819;27;20469;-45
2021/06/28 05:45:44;;;;;;;14.10;9.93;;;21.60;80.50;;;;;;5061596;28;20485;-45
2021/06/28 05:48:11;;;;;;;11.03;9.00;;;21.70;79.00;;;;;;5090005;28;20454;-45
2021/06/28 05:50:38;;;;;;;10.67;9.57;;;21.80;78.60;;;;;;5063059;28;20452;-45
2021/06/28 05:53:06;;;;;;;10.20;9.20;;;21.80;78.30;;;;;;5091789;28;20453;-45
2021/06/28 05:55:33;;;;;;;12.33;9.70;;;21.90;78.10;;;;;;5067685;28;20824;-45
2021/06/28 05:58:00;;;;;;;10.57;9.47;;;22.00;77.50;;;;;;5090756;27;20447;-45
2021/06/28 06:00:27;;;;;;;12.80;9.53;;;22.00;77.50;;;;;;5060910;28;20951;-45
2021/06/28 06:02:54;;;;;;;11.10;10.00;;;22.00;77.50;;;;;;5061726;28;20458;-45
2021/06/28 06:05:21;;;;;;;10.23;9.10;;;22.00;77.40;;;;;;5092568;28;21033;-43
2021/06/28 06:07:48;;;;;;;11.60;9.10;;;22.10;77.40;;;;;;5062646;28;20932;-43
2021/06/28 06:10:15;;;;;;;11.30;9.73;;;22.10;77.50;;;;;;5064144;28;20493;-43
2021/06/28 06:12:47;;;;;;;12.23;9.03;;;22.20;77.40;;;;;;5084803;28;21010;-43
2021/06/28 06:15:14;;;;;;;14.23;8.60;;;22.20;77.40;;;;;;5060221;28;21026;-43
2021/06/28 06:17:42;;;;;;;13.07;9.47;;;22.30;77.20;;;;;;5064484;28;20621;-43
2021/06/28 06:20:09;;;;;;;10.27;9.17;;;22.30;76.60;;;;;;5060148;28;20449;-42
2021/06/28 06:22:36;;;;;;;11.83;9.23;;;22.50;76.50;;;;;;5056466;28;20464;-43
2021/06/28 06:25:05;;;;;;;10.27;8.83;;;22.50;76.00;;;;;;5060791;28;21012;-43
2021/06/28 06:27:32;;;;;;;10.20;9.30;;;22.60;75.90;;;;;;5091171;28;20450;-43
2021/06/28 06:29:59;;;;;;;9.60;8.60;;;22.60;75.80;;;;;;5059525;28;20445;-43
2021/06/28 06:32:26;;;;;;;9.33;8.43;;;22.60;75.70;;;;;;5062874;28;21101;-43
2021/06/28 06:34:55;;;;;;;12.70;10.40;;;22.70;75.60;;;;;;5063203;28;20461;-43
2021/06/28 06:37:22;;;;;;;11.13;9.80;;;22.70;75.90;;;;;;5091122;27;20829;-43
2021/06/28 06:39:49;;;;;;;11.00;8.50;;;22.70;75.70;;;;;;5062104;28;20469;-43
2021/06/28 06:42:16;;;;;;;11.57;10.27;;;22.80;75.10;;;;;;5059726;28;20457;-42
2021/06/28 06:44:43;;;;;;;13.83;10.13;;;22.80;75.40;;;;;;5059101;28;20464;-43
2021/06/28 06:47:12;;;;;;;12.10;9.63;;;22.90;74.80;;;;;;5057960;28;20449;-43
2021/06/28 06:49:39;;;;;;;14.57;11.80;;;22.90;74.50;;;;;;5054581;28;20451;-44
2021/06/28 06:52:06;;;;;;;46.03;14.83;;;23.00;74.50;;;;;;5056095;28;20528;-43
2021/06/28 06:54:33;;;;;;;13.30;11.03;;;23.00;74.90;;;;;;5055633;28;20502;-43
2021/06/28 06:56:59;;;;;;;10.50;9.40;;;23.10;74.90;;;;;;5057663;28;20457;-43
2021/06/28 06:59:26;;;;;;;13.00;9.43;;;23.10;74.10;;;;;;5055696;28;20449;-43
2021/06/28 07:01:53;;;;;;;10.40;8.80;;;23.30;73.50;;;;;;5054349;28;21034;-43
2021/06/28 07:04:20;;;;;;;9.40;8.40;;;23.40;72.90;;;;;;5063485;28;20537;-43
2021/06/28 07:06:47;;;;;;;8.77;7.90;;;23.60;72.60;;;;;;5084254;28;20485;-43
2021/06/28 07:09:15;;;;;;;9.33;8.40;;;23.70;72.30;;;;;;5058684;28;20498;-43
2021/06/28 07:11:42;;;;;;;8.30;7.50;;;23.80;71.70;;;;;;5056786;28;20465;-43
2021/06/28 07:14:09;;;;;;;8.70;7.90;;;24.00;70.40;;;;;;5058111;28;20487;-43
2021/06/28 07:16:35;;;;;;;7.57;6.87;;;24.20;69.70;;;;;;5061361;28;20835;-42
2021/06/28 07:19:04;;;;;;;9.70;7.63;;;24.20;70.00;;;;;;5092161;27;20489;-43
2021/06/28 07:21:34;;;;;;;8.80;7.90;;;24.10;70.40;;;;;;5059069;28;20465;-44
2021/06/28 07:24:02;;;;;;;9.30;8.00;;;24.10;70.70;;;;;;5091934;28;20997;-43
2021/06/28 07:26:29;;;;;;;8.30;7.50;;;24.10;70.90;;;;;;5057187;28;20927;-43
2021/06/28 07:28:57;;;;;;;9.83;8.13;;;24.30;70.70;;;;;;5058725;28;20450;-44
2021/06/28 07:31:23;;;;;;;7.70;7.00;;;24.40;70.30;;;;;;5061699;28;20460;-43
2021/06/28 07:33:51;;;;;;;8.40;7.37;;;24.60;69.50;;;;;;5061972;28;20532;-44
2021/06/28 07:36:18;;;;;;;8.10;7.30;;;24.80;69.10;;;;;;5060105;28;20465;-43
2021/06/28 07:38:44;;;;;;;9.80;7.63;;;25.00;68.60;;;;;;5062093;28;20453;-43
2021/06/28 07:41:11;;;;;;;8.00;7.20;;;25.10;68.30;;;;;;5061041;28;20453;-44
2021/06/28 07:43:38;;;;;;;8.20;7.00;;;25.30;68.30;;;;;;5092116;27;20969;-43
2021/06/28 07:46:06;;;;;;;7.23;6.63;;;25.40;67.60;;;;;;5060340;28;21009;-44
2021/06/28 07:48:33;;;;;;;7.90;7.10;;;25.50;67.20;;;;;;5059542;28;20913;-44
2021/06/28 07:50:59;;;;;;;7.63;7.00;;;25.70;66.70;;;;;;5085262;28;20453;-44
2021/06/28 07:53:26;;;;;;;9.37;6.00;;;25.90;65.80;;;;;;5062320;28;20543;-44
2021/06/28 07:55:53;;;;;;;7.87;6.63;;;26.00;65.00;;;;;;5048102;28;20866;-44
2021/06/28 07:58:20;;;;;;;6.60;6.10;;;26.20;64.90;;;;;;5060626;28;21155;-43
2021/06/28 08:00:47;;;;;;;7.30;6.63;;;26.40;64.50;;;;;;5061587;28;20555;-44
2021/06/28 08:03:14;;;;;;;7.00;6.30;;;26.50;64.30;;;;;;5055864;28;20871;-44
2021/06/28 08:05:41;;;;;;;7.70;6.67;;;26.70;62.70;;;;;;5084442;28;20477;-44
2021/06/28 08:08:08;;;;;;;6.50;5.90;;;26.90;62.50;;;;;;5058797;28;20973;-43
2021/06/28 08:10:35;;;;;;;8.17;6.97;;;27.00;62.10;;;;;;5056675;28;20464;-44
2021/06/28 08:13:03;;;;;;;7.33;6.63;;;27.20;62.10;;;;;;5059913;28;20450;-43
2021/06/28 08:15:30;;;;;;;6.50;5.47;;;27.30;62.20;;;;;;5060867;28;20453;-44
2021/06/28 08:17:57;;;;;;;6.20;5.60;;;27.40;62.40;;;;;;5060582;28;20980;-43
2021/06/28 08:20:23;;;;;;;7.00;6.10;;;27.50;61.50;;;;;;5059572;28;20454;-43
2021/06/28 08:22:50;;;;;;;7.50;5.87;;;27.60;60.80;;;;;;5060022;28;20463;-43
2021/06/28 08:25:19;;;;;;;10.40;6.60;;;27.70;59.60;;;;;;5064650;28;20488;-43
2021/06/28 08:27:45;;;;;;;6.30;5.70;;;27.70;60.10;;;;;;5058418;28;20533;-43
2021/06/28 08:30:14;;;;;;;6.07;5.43;;;27.70;60.20;;;;;;5058729;28;20469;-43
2021/06/28 08:32:41;;;;;;;6.10;5.60;;;27.60;60.60;;;;;;5056327;28;20524;-44
2021/06/28 08:35:09;;;;;;;6.13;5.50;;;27.60;60.70;;;;;;5064402;28;20444;-43
2021/06/28 08:37:36;;;;;;;6.70;6.00;;;27.60;60.70;;;;;;5066096;28;21534;-44
2021/06/28 08:40:04;;;;;;;5.30;4.90;;;27.40;60.30;;;;;;5062396;28;20532;-43
2021/06/28 08:42:31;;;;;;;5.90;5.30;;;27.40;60.30;;;;;;5060305;28;20464;-43
2021/06/28 08:44:58;;;;;;;5.33;4.80;;;27.30;60.00;;;;;;5091700;28;20461;-43
2021/06/28 08:47:25;;;;;;;5.90;4.83;;;27.30;60.40;;;;;;5062548;28;20485;-44
2021/06/28 08:49:52;;;;;;;5.67;5.20;;;27.50;60.00;;;;;;5062529;28;20444;-43
2021/06/28 08:52:20;;;;;;;6.40;5.80;;;27.70;59.90;;;;;;5057560;28;20805;-44
2021/06/28 08:54:47;;;;;;;5.60;5.20;;;27.80;59.50;;;;;;5061931;28;20449;-44
2021/06/28 08:57:14;;;;;;;5.17;4.70;;;27.80;59.10;;;;;;5061525;28;20454;-43
2021/06/28 08:59:41;;;;;;;7.00;5.40;;;27.80;59.10;;;;;;5062504;28;20460;-43
2021/06/28 09:02:09;;;;;;;10.63;5.03;;;27.80;58.70;;;;;;5057739;28;20465;-44
2021/06/28 09:04:36;;;;;;;8.03;6.13;;;27.70;59.10;;;;;;5058548;28;20485;-43
2021/06/28 09:07:21;;;;;;;6.30;5.70;;;27.80;59.60;;;;;;5089763;28;20507;-44
2021/06/28 09:09:48;;;;;;;6.47;5.30;;;27.80;59.70;;;;;;5061077;28;20456;-43
2021/06/28 09:12:17;;;;;;;5.00;4.30;;;27.80;59.90;;;;;;5065956;28;20453;-43
2021/06/28 09:14:47;;;;;;;5.03;4.63;;;27.80;59.30;;;;;;5062809;28;20456;-43
2021/06/28 09:17:31;;;;;;;4.77;4.37;;;27.70;58.80;;;;;;5065492;28;20468;-44
2021/06/28 09:20:10;;;;;;;11.50;5.13;;;27.50;59.40;;;;;;5062613;28;20464;-44
2021/06/28 09:22:38;;;;;;;8.77;5.37;;;27.40;60.90;;;;;;5090760;28;20466;-44
2021/06/28 09:25:07;;;;;;;7.47;5.53;;;27.30;61.40;;;;;;5064588;28;20459;-43
2021/06/28 09:27:42;;;;;;;7.20;6.60;;;27.30;61.20;;;;;;5062661;28;20487;-44
2021/06/28 09:30:21;;;;;;;4.97;4.57;;;27.20;61.80;;;;;;5094133;27;20945;-44
2021/06/28 09:32:55;;;;;;;7.37;5.20;;;27.10;61.50;;;;;;5064199;28;20468;-43
2021/06/28 09:35:39;;;;;;;5.60;5.20;;;27.00;61.20;;;;;;5086123;27;20470;-43
2021/06/28 09:38:32;;;;;;;5.63;5.13;;;27.00;62.30;;;;;;5058772;28;20465;-43
2021/06/28 09:41:23;;;;;;;5.70;5.20;;;27.10;62.80;;;;;;5064217;28;20453;-44
2021/06/28 09:43:52;;;;;;;5.00;4.60;;;27.40;62.90;;;;;;5062892;28;20462;-43
2021/06/28 09:46:21;;;;;;;7.40;6.70;;;27.80;61.80;;;;;;5062151;28;20485;-43
2021/06/28 09:48:54;;;;;;;5.53;5.03;;;28.20;61.20;;;;;;5061441;28;20468;-44
2021/06/28 09:51:28;;;;;;;5.93;5.40;;;28.40;60.60;;;;;;5059678;28;20871;-44
2021/06/28 09:54:08;;;;;;;6.00;5.50;;;28.40;59.90;;;;;;5059714;28;20449;-43
2021/06/28 09:56:52;;;;;;;5.77;5.27;;;28.20;60.30;;;;;;5063705;28;20467;-44
2021/06/28 09:59:20;;;;;;;5.47;4.73;;;28.10;60.10;;;;;;5061967;28;20453;-47
2021/06/28 10:01:48;;;;;;;5.43;5.03;;;27.90;60.10;;;;;;5067241;28;20460;-43
2021/06/28 10:04:47;;;;;;;5.03;4.53;;;27.80;60.60;;;;;;5060511;28;20456;-43
2021/06/28 10:07:20;;;;;;;4.17;3.77;;;27.90;61.00;;;;;;5063171;28;20484;-43
2021/06/28 10:10:09;;;;;;;4.93;4.53;;;28.00;59.30;;;;;;5067567;28;20452;-43
2021/06/28 10:12:37;;;;;;;4.17;3.77;;;28.10;58.80;;;;;;5092957;27;20450;-44
2021/06/28 10:15:06;;;;;;;4.57;4.17;;;28.10;58.70;;;;;;5059418;28;20481;-44
2021/06/28 10:17:34;;;;;;;3.50;3.20;;;28.10;58.10;;;;;;5062030;28;20514;-43
2021/06/28 10:20:00;;;;;;;3.73;3.43;;;28.20;57.80;;;;;;5059235;28;20454;-44
2021/06/28 10:22:27;;;;;;;3.23;3.03;;;28.20;57.60;;;;;;5061061;28;20655;-43
2021/06/28 10:24:59;;;;;;;4.07;3.13;;;28.20;56.90;;;;;;5060767;28;20684;-43
2021/06/28 10:27:27;;;;;;;3.50;3.20;;;28.10;55.80;;;;;;5062627;28;20485;-43
2021/06/28 10:29:55;;;;;;;3.50;3.20;;;28.10;55.70;;;;;;5061274;28;20461;-44
2021/06/28 10:32:22;;;;;;;3.50;3.30;;;28.10;56.40;;;;;;5090243;28;20456;-44
2021/06/28 10:34:53;;;;;;;4.27;3.67;;;28.00;57.20;;;;;;5064230;28;20195;-44
2021/06/28 10:37:33;;;;;;;3.40;3.10;;;28.00;57.70;;;;;;5061572;28;20458;-43
2021/06/28 10:40:08;;;;;;;3.27;3.07;;;27.90;57.10;;;;;;5063287;28;20453;-44
2021/06/28 10:42:46;;;;;;;3.50;2.97;;;27.90;56.80;;;;;;5059232;28;20452;-43
2021/06/28 10:45:15;;;;;;;3.80;3.50;;;27.80;55.80;;;;;;5065424;28;20466;-44
2021/06/28 10:48:10;;;;;;;4.63;3.80;;;27.70;57.40;;;;;;5062447;28;20489;-44
2021/06/28 10:50:56;;;;;;;4.73;3.73;;;27.70;58.60;;;;;;5061625;28;20449;-44
2021/06/28 10:53:26;;;;;;;4.40;4.07;;;27.70;59.30;;;;;;5061114;28;20475;-43
2021/06/28 10:55:53;;;;;;;4.00;3.77;;;27.70;60.20;;;;;;5089564;28;20458;-44
2021/06/28 10:58:28;;;;;;;4.60;4.20;;;27.70;60.20;;;;;;5093086;28;20480;-43
2021/06/28 11:01:09;;;;;;;6.10;4.30;;;27.70;59.90;;;;;;5059819;28;20460;-44
2021/06/28 11:03:36;;;;;;;4.43;4.07;;;27.80;60.10;;;;;;5060452;28;20449;-43
2021/06/28 11:06:17;;;;;;;4.00;3.70;;;27.80;60.00;;;;;;5058477;28;20484;-44
2021/06/28 11:09:07;;;;;;;4.07;3.77;;;27.80;59.80;;;;;;5061259;28;20519;-43
2021/06/28 11:11:43;;;;;;;4.40;4.03;;;27.60;58.70;;;;;;5060838;28;20452;-44
2021/06/28 11:14:31;;;;;;;5.70;4.20;;;27.70;58.50;;;;;;5059108;28;20830;-42
2021/06/28 11:16:58;;;;;;;4.80;4.20;;;27.70;58.40;;;;;;5060785;28;20456;-42
2021/06/28 11:19:51;;;;;;;4.73;4.33;;;27.70;58.70;;;;;;5059304;28;20869;-42
2021/06/28 11:22:27;;;;;;;4.80;4.40;;;27.70;59.60;;;;;;5061185;28;20464;-42
2021/06/28 11:25:08;;;;;;;4.57;4.17;;;27.80;59.50;;;;;;5061681;28;20453;-43
2021/06/28 11:27:45;;;;;;;4.70;4.40;;;27.80;59.00;;;;;;5091487;27;20491;-42
2021/06/28 11:30:14;;;;;;;4.60;4.20;;;27.80;59.00;;;;;;5061597;28;20950;-43
2021/06/28 11:33:05;;;;;;;4.97;4.57;;;27.80;58.60;;;;;;5090432;27;20945;-43
2021/06/28 11:35:48;;;;;;;4.70;4.30;;;27.90;58.40;;;;;;5060001;28;20207;-43
2021/06/28 11:38:25;;;;;;;4.67;4.27;;;28.00;57.40;;;;;;5062069;28;20461;-43
2021/06/28 11:40:56;;;;;;;5.40;4.30;;;28.00;57.30;;;;;;5061055;28;20974;-43
2021/06/28 11:43:39;;;;;;;5.57;5.03;;;28.00;57.50;;;;;;5062332;28;20453;-42
2021/06/28 11:46:10;;;;;;;7.93;4.70;;;28.00;58.10;;;;;;5061132;28;20846;-42
2021/06/28 11:48:48;;;;;;;4.67;4.27;;;28.00;58.90;;;;;;5057368;28;20508;-43
2021/06/28 11:51:16;;;;;;;5.47;5.07;;;28.10;58.80;;;;;;5058300;28;20202;-43
2021/06/28 11:53:50;;;;;;;5.07;4.67;;;28.00;59.10;;;;;;5057660;28;20816;-43
2021/06/28 11:56:33;;;;;;;5.00;4.60;;;28.10;58.40;;;;;;5060353;28;20988;-43
2021/06/28 11:59:00;;;;;;;4.80;4.40;;;28.10;58.00;;;;;;5059411;28;20203;-43
2021/06/28 12:01:47;;;;;;;4.97;4.57;;;28.00;57.60;;;;;;5058587;28;20457;-43
2021/06/28 12:04:35;;;;;;;5.13;4.73;;;28.10;58.50;;;;;;5061287;28;20468;-43
2021/06/28 12:07:04;;;;;;;4.20;3.90;;;28.20;58.60;;;;;;5059924;28;20494;-43
2021/06/28 12:09:37;;;;;;;4.23;3.83;;;28.20;57.40;;;;;;5086584;28;20226;-43
2021/06/28 12:12:08;;;;;;;4.43;4.03;;;28.20;56.00;;;;;;5058509;28;20464;-43
2021/06/28 12:14:46;;;;;;;4.70;3.53;;;28.20;55.90;;;;;;5063150;28;20468;-43
2021/06/28 12:17:21;;;;;;;4.20;3.70;;;28.30;56.30;;;;;;5061045;28;20210;-44
2021/06/28 12:19:58;;;;;;;3.93;3.63;;;28.40;56.80;;;;;;5059333;28;20294;-43
2021/06/28 12:22:30;;;;;;;3.67;3.37;;;28.40;56.60;;;;;;5059856;28;20543;-43
2021/06/28 12:25:09;;;;;;;3.57;3.30;;;28.50;55.50;;;;;;5087818;28;20456;-43
2021/06/28 12:27:38;;;;;;;3.93;3.53;;;28.50;55.00;;;;;;5061019;28;20219;-43
2021/06/28 12:30:14;;;;;;;3.77;3.47;;;28.50;54.60;;;;;;5060692;28;20200;-44
2021/06/28 12:32:50;;;;;;;3.20;2.90;;;28.40;54.40;;;;;;5060089;28;20203;-43
2021/06/28 12:35:23;;;;;;;3.67;2.90;;;28.50;54.40;;;;;;5059215;28;20560;-44
2021/06/28 12:37:52;;;;;;;3.10;2.90;;;28.50;53.90;;;;;;5059673;28;20818;-44
2021/06/28 12:40:27;;;;;;;2.93;2.73;;;28.50;54.30;;;;;;5061123;28;20214;-43
2021/06/28 12:43:07;;;;;;;3.37;3.10;;;28.50;53.30;;;;;;5055386;28;20293;-43
2021/06/28 12:45:42;;;;;;;3.60;3.30;;;28.50;53.50;;;;;;5060367;28;20207;-44
2021/06/28 12:48:24;;;;;;;3.43;3.10;;;28.50;54.00;;;;;;5062873;28;20316;-44
2021/06/28 12:50:55;;;;;;;3.23;3.00;;;28.50;54.20;;;;;;5059901;28;20211;-44
2021/06/28 12:53:23;;;;;;;4.23;3.00;;;28.50;53.40;;;;;;5063058;28;20544;-43
2021/06/28 12:56:02;;;;;;;3.10;2.80;;;28.60;54.20;;;;;;5055039;28;20207;-43
2021/06/28 12:58:44;;;;;;;3.20;3.00;;;28.70;53.90;;;;;;5060797;28;20210;-44